sensor_id;sensor_type;location;lat;lon;timestamp;temperature;humidity
58363;DHT22;54977;51.510;7.522;2022-07-10T00:02:22;15.50;51.00
58363;DHT22;54977;51.510;7.522;2022-07-10T00:07:25;15.40;51.20
58363;DHT22;54977;51.510;7.522;2022-07-10T00:12:27;15.40;51.40
58363;DHT22;54977;51.510;7.522;2022-07-10T00:17:29;15.40;51.50
58363;DHT22;54977;51.510;7.522;2022-07-10T00:22:33;15.50;51.50
58363;DHT22;54977;51.510;7.522;2022-07-10T00:27:35;15.40;51.80
58363;DHT22;54977;51.510;7.522;2022-07-10T00:32:37;15.40;51.80
58363;DHT22;54977;51.510;7.522;2022-07-10T00:37:41;15.20;52.90
58363;DHT22;54977;51.510;7.522;2022-07-10T00:42:42;15.30;52.30
58363;DHT22;54977;51.510;7.522;2022-07-10T00:47:44;15.20;52.90
58363;DHT22;54977;51.510;7.522;2022-07-10T00:52:47;15.20;53.00
58363;DHT22;54977;51.510;7.522;2022-07-10T00:57:49;15.20;53.10
58363;DHT22;54977;51.510;7.522;2022-07-10T01:02:52;15.20;53.20
58363;DHT22;54977;51.510;7.522;2022-07-10T01:07:55;15.30;53.20
58363;DHT22;54977;51.510;7.522;2022-07-10T01:12:57;15.20;52.90
58363;DHT22;54977;51.510;7.522;2022-07-10T01:17:59;15.30;52.90
58363;DHT22;54977;51.510;7.522;2022-07-10T01:23:03;15.20;53.10
58363;DHT22;54977;51.510;7.522;2022-07-10T01:28:05;15.30;52.80
58363;DHT22;54977;51.510;7.522;2022-07-10T01:33:06;15.20;52.90
58363;DHT22;54977;51.510;7.522;2022-07-10T01:38:10;15.20;53.10
58363;DHT22;54977;51.510;7.522;2022-07-10T01:43:12;15.20;53.20
58363;DHT22;54977;51.510;7.522;2022-07-10T01:48:13;15.10;53.30
58363;DHT22;54977;51.510;7.522;2022-07-10T01:53:16;15.20;53.10
58363;DHT22;54977;51.510;7.522;2022-07-10T01:58:18;15.00;53.10
58363;DHT22;54977;51.510;7.522;2022-07-10T02:03:20;15.00;53.30
58363;DHT22;54977;51.510;7.522;2022-07-10T02:08:40;15.00;53.30
58363;DHT22;54977;51.510;7.522;2022-07-10T02:13:42;15.10;53.60
58363;DHT22;54977;51.510;7.522;2022-07-10T02:18:44;14.90;54.10
58363;DHT22;54977;51.510;7.522;2022-07-10T02:23:47;14.90;53.70
58363;DHT22;54977;51.510;7.522;2022-07-10T02:28:49;14.70;54.20
58363;DHT22;54977;51.510;7.522;2022-07-10T02:33:51;14.90;54.00
58363;DHT22;54977;51.510;7.522;2022-07-10T02:38:54;14.90;54.00
58363;DHT22;54977;51.510;7.522;2022-07-10T02:43:55;14.90;54.10
58363;DHT22;54977;51.510;7.522;2022-07-10T02:48:57;14.80;54.20
58363;DHT22;54977;51.510;7.522;2022-07-10T02:54:00;14.90;54.20
58363;DHT22;54977;51.510;7.522;2022-07-10T02:59:03;14.90;54.20
58363;DHT22;54977;51.510;7.522;2022-07-10T03:04:04;14.80;54.20
58363;DHT22;54977;51.510;7.522;2022-07-10T03:09:07;14.80;54.70
58363;DHT22;54977;51.510;7.522;2022-07-10T03:14:09;14.70;54.80
58363;DHT22;54977;51.510;7.522;2022-07-10T03:19:11;14.80;54.50
58363;DHT22;54977;51.510;7.522;2022-07-10T03:24:14;14.90;54.20
58363;DHT22;54977;51.510;7.522;2022-07-10T03:29:16;14.90;54.40
58363;DHT22;54977;51.510;7.522;2022-07-10T03:34:18;14.90;54.50
58363;DHT22;54977;51.510;7.522;2022-07-10T03:39:21;14.90;54.60
58363;DHT22;54977;51.510;7.522;2022-07-10T03:44:23;14.90;54.60
58363;DHT22;54977;51.510;7.522;2022-07-10T03:49:25;14.90;54.60
58363;DHT22;54977;51.510;7.522;2022-07-10T03:54:28;14.90;54.80
58363;DHT22;54977;51.510;7.522;2022-07-10T03:59:30;14.90;54.90
58363;DHT22;54977;51.510;7.522;2022-07-10T04:04:32;14.90;55.20
58363;DHT22;54977;51.510;7.522;2022-07-10T04:09:35;14.70;55.50
58363;DHT22;54977;51.510;7.522;2022-07-10T04:14:37;14.60;55.80
58363;DHT22;54977;51.510;7.522;2022-07-10T04:19:39;14.70;55.90
58363;DHT22;54977;51.510;7.522;2022-07-10T04:24:42;14.80;56.00
58363;DHT22;54977;51.510;7.522;2022-07-10T04:29:44;15.00;55.40
58363;DHT22;54977;51.510;7.522;2022-07-10T04:34:45;15.00;55.50
58363;DHT22;54977;51.510;7.522;2022-07-10T04:39:49;15.10;55.30
58363;DHT22;54977;51.510;7.522;2022-07-10T04:44:50;15.30;54.90
58363;DHT22;54977;51.510;7.522;2022-07-10T04:49:52;15.20;55.20
58363;DHT22;54977;51.510;7.522;2022-07-10T04:54:55;15.10;55.30
58363;DHT22;54977;51.510;7.522;2022-07-10T04:59:57;15.30;54.90
58363;DHT22;54977;51.510;7.522;2022-07-10T05:05:00;15.30;54.50
58363;DHT22;54977;51.510;7.522;2022-07-10T05:10:04;15.40;55.40
58363;DHT22;54977;51.510;7.522;2022-07-10T05:15:07;15.40;54.40
58363;DHT22;54977;51.510;7.522;2022-07-10T05:20:10;15.60;54.10
58363;DHT22;54977;51.510;7.522;2022-07-10T05:25:13;15.80;53.30
58363;DHT22;54977;51.510;7.522;2022-07-10T05:30:15;15.90;53.00
58363;DHT22;54977;51.510;7.522;2022-07-10T05:35:17;16.00;53.60
58363;DHT22;54977;51.510;7.522;2022-07-10T05:40:20;16.10;52.20
58363;DHT22;54977;51.510;7.522;2022-07-10T05:45:22;16.20;52.70
58363;DHT22;54977;51.510;7.522;2022-07-10T05:50:24;16.60;51.80
58363;DHT22;54977;51.510;7.522;2022-07-10T05:55:28;16.70;51.20
58363;DHT22;54977;51.510;7.522;2022-07-10T06:00:30;16.70;50.70
58363;DHT22;54977;51.510;7.522;2022-07-10T06:05:32;16.80;50.90
58363;DHT22;54977;51.510;7.522;2022-07-10T06:10:35;17.20;49.90
58363;DHT22;54977;51.510;7.522;2022-07-10T06:15:37;17.20;49.40
58363;DHT22;54977;51.510;7.522;2022-07-10T06:20:38;17.20;48.90
58363;DHT22;54977;51.510;7.522;2022-07-10T06:25:41;17.10;47.90
58363;DHT22;54977;51.510;7.522;2022-07-10T06:30:43;16.80;48.90
58363;DHT22;54977;51.510;7.522;2022-07-10T06:35:46;17.10;48.20
58363;DHT22;54977;51.510;7.522;2022-07-10T06:40:50;17.70;48.10
58363;DHT22;54977;51.510;7.522;2022-07-10T06:45:53;17.70;46.20
58363;DHT22;54977;51.510;7.522;2022-07-10T06:50:55;17.90;46.80
58363;DHT22;54977;51.510;7.522;2022-07-10T06:55:58;18.40;45.30
58363;DHT22;54977;51.510;7.522;2022-07-10T07:01:00;18.50;45.30
58363;DHT22;54977;51.510;7.522;2022-07-10T07:06:03;18.60;44.20
58363;DHT22;54977;51.510;7.522;2022-07-10T07:11:06;18.60;43.90
58363;DHT22;54977;51.510;7.522;2022-07-10T07:16:08;18.30;45.40
58363;DHT22;54977;51.510;7.522;2022-07-10T07:21:11;17.80;45.70
58363;DHT22;54977;51.510;7.522;2022-07-10T07:26:32;17.60;46.00
58363;DHT22;54977;51.510;7.522;2022-07-10T07:31:34;17.40;46.50
58363;DHT22;54977;51.510;7.522;2022-07-10T07:36:36;17.50;47.10
58363;DHT22;54977;51.510;7.522;2022-07-10T07:41:39;17.10;46.70
58363;DHT22;54977;51.510;7.522;2022-07-10T07:46:41;17.10;47.40
58363;DHT22;54977;51.510;7.522;2022-07-10T07:51:43;16.90;49.20
58363;DHT22;54977;51.510;7.522;2022-07-10T07:56:46;17.10;48.50
58363;DHT22;54977;51.510;7.522;2022-07-10T08:01:48;16.90;49.20
58363;DHT22;54977;51.510;7.522;2022-07-10T08:06:50;17.00;49.30
58363;DHT22;54977;51.510;7.522;2022-07-10T08:11:54;16.40;50.70
58363;DHT22;54977;51.510;7.522;2022-07-10T08:16:55;16.40;51.00
58363;DHT22;54977;51.510;7.522;2022-07-10T08:21:57;16.50;51.50
58363;DHT22;54977;51.510;7.522;2022-07-10T08:27:01;16.50;51.70
58363;DHT22;54977;51.510;7.522;2022-07-10T08:32:03;16.60;51.60
58363;DHT22;54977;51.510;7.522;2022-07-10T08:37:05;16.50;51.90
58363;DHT22;54977;51.510;7.522;2022-07-10T08:42:10;16.50;51.30
58363;DHT22;54977;51.510;7.522;2022-07-10T08:47:13;16.80;51.50
58363;DHT22;54977;51.510;7.522;2022-07-10T08:52:26;16.90;51.10
58363;DHT22;54977;51.510;7.522;2022-07-10T08:57:30;16.90;51.50
58363;DHT22;54977;51.510;7.522;2022-07-10T09:02:32;17.00;51.10
58363;DHT22;54977;51.510;7.522;2022-07-10T09:07:35;17.00;51.80
58363;DHT22;54977;51.510;7.522;2022-07-10T09:12:59;17.30;50.60
58363;DHT22;54977;51.510;7.522;2022-07-10T09:18:03;17.30;51.40
58363;DHT22;54977;51.510;7.522;2022-07-10T09:23:15;17.20;52.50
58363;DHT22;54977;51.510;7.522;2022-07-10T09:28:21;17.30;52.90
58363;DHT22;54977;51.510;7.522;2022-07-10T09:33:25;17.30;53.00
58363;DHT22;54977;51.510;7.522;2022-07-10T09:38:30;17.30;53.80
58363;DHT22;54977;51.510;7.522;2022-07-10T09:43:52;17.90;53.50
58363;DHT22;54977;51.510;7.522;2022-07-10T09:49:05;18.50;52.90
58363;DHT22;54977;51.510;7.522;2022-07-10T09:54:09;18.90;51.40
58363;DHT22;54977;51.510;7.522;2022-07-10T09:59:14;19.10;50.10
58363;DHT22;54977;51.510;7.522;2022-07-10T10:04:17;19.40;49.40
58363;DHT22;54977;51.510;7.522;2022-07-10T10:09:23;19.50;49.30
58363;DHT22;54977;51.510;7.522;2022-07-10T10:14:27;19.20;49.10
58363;DHT22;54977;51.510;7.522;2022-07-10T10:19:30;18.90;50.00
58363;DHT22;54977;51.510;7.522;2022-07-10T10:24:50;18.60;51.30
58363;DHT22;54977;51.510;7.522;2022-07-10T10:29:55;18.70;52.40
58363;DHT22;54977;51.510;7.522;2022-07-10T10:34:56;18.90;51.30
58363;DHT22;54977;51.510;7.522;2022-07-10T10:39:59;18.40;51.60
58363;DHT22;54977;51.510;7.522;2022-07-10T10:45:24;18.20;52.50
58363;DHT22;54977;51.510;7.522;2022-07-10T10:50:38;18.10;53.90
58363;DHT22;54977;51.510;7.522;2022-07-10T10:55:40;18.10;54.00
58363;DHT22;54977;51.510;7.522;2022-07-10T11:00:44;18.10;53.90
58363;DHT22;54977;51.510;7.522;2022-07-10T11:05:49;18.40;55.10
58363;DHT22;54977;51.510;7.522;2022-07-10T11:10:51;18.50;55.50
58363;DHT22;54977;51.510;7.522;2022-07-10T11:15:56;18.50;56.00
58363;DHT22;54977;51.510;7.522;2022-07-10T11:21:01;18.50;57.10
58363;DHT22;54977;51.510;7.522;2022-07-10T11:26:05;18.70;56.40
58363;DHT22;54977;51.510;7.522;2022-07-10T11:31:12;18.90;55.10
58363;DHT22;54977;51.510;7.522;2022-07-10T11:36:16;18.70;55.70
58363;DHT22;54977;51.510;7.522;2022-07-10T11:41:18;18.60;55.70
58363;DHT22;54977;51.510;7.522;2022-07-10T11:46:24;18.60;55.70
58363;DHT22;54977;51.510;7.522;2022-07-10T11:51:27;18.60;56.90
58363;DHT22;54977;51.510;7.522;2022-07-10T11:56:31;19.10;56.00
58363;DHT22;54977;51.510;7.522;2022-07-10T12:01:40;19.90;54.10
58363;DHT22;54977;51.510;7.522;2022-07-10T12:06:44;20.00;52.60
58363;DHT22;54977;51.510;7.522;2022-07-10T12:11:58;19.70;53.50
58363;DHT22;54977;51.510;7.522;2022-07-10T12:17:03;19.70;52.40
58363;DHT22;54977;51.510;7.522;2022-07-10T12:22:11;19.20;53.20
58363;DHT22;54977;51.510;7.522;2022-07-10T12:27:38;19.30;53.60
58363;DHT22;54977;51.510;7.522;2022-07-10T12:32:42;18.90;53.90
58363;DHT22;54977;51.510;7.522;2022-07-10T12:37:47;18.90;55.10
58363;DHT22;54977;51.510;7.522;2022-07-10T12:43:01;19.30;55.00
58363;DHT22;54977;51.510;7.522;2022-07-10T12:48:05;19.80;54.50
58363;DHT22;54977;51.510;7.522;2022-07-10T12:53:08;20.40;52.40
58363;DHT22;54977;51.510;7.522;2022-07-10T12:58:12;20.90;51.70
58363;DHT22;54977;51.510;7.522;2022-07-10T13:03:19;21.30;51.10
58363;DHT22;54977;51.510;7.522;2022-07-10T13:08:22;21.30;50.50
58363;DHT22;54977;51.510;7.522;2022-07-10T13:13:25;21.50;50.50
58363;DHT22;54977;51.510;7.522;2022-07-10T13:18:28;21.90;48.30
58363;DHT22;54977;51.510;7.522;2022-07-10T13:23:30;21.40;50.00
58363;DHT22;54977;51.510;7.522;2022-07-10T13:28:33;21.00;52.30
58363;DHT22;54977;51.510;7.522;2022-07-10T13:33:37;22.40;47.90
58363;DHT22;54977;51.510;7.522;2022-07-10T13:38:38;23.20;46.30
58363;DHT22;54977;51.510;7.522;2022-07-10T13:43:40;22.70;43.70
58363;DHT22;54977;51.510;7.522;2022-07-10T13:48:44;21.90;46.70
58363;DHT22;54977;51.510;7.522;2022-07-10T13:53:45;20.90;47.90
58363;DHT22;54977;51.510;7.522;2022-07-10T13:58:48;20.40;50.70
58363;DHT22;54977;51.510;7.522;2022-07-10T14:03:51;20.40;51.70
58363;DHT22;54977;51.510;7.522;2022-07-10T14:08:53;20.00;52.00
58363;DHT22;54977;51.510;7.522;2022-07-10T14:13:55;19.90;53.30
58363;DHT22;54977;51.510;7.522;2022-07-10T14:18:58;19.60;53.60
58363;DHT22;54977;51.510;7.522;2022-07-10T14:24:02;19.60;54.00
58363;DHT22;54977;51.510;7.522;2022-07-10T14:29:04;19.80;53.70
58363;DHT22;54977;51.510;7.522;2022-07-10T14:34:08;19.90;53.20
58363;DHT22;54977;51.510;7.522;2022-07-10T14:39:10;20.00;52.00
58363;DHT22;54977;51.510;7.522;2022-07-10T14:44:12;20.30;51.40
58363;DHT22;54977;51.510;7.522;2022-07-10T14:49:15;20.10;52.00
58363;DHT22;54977;51.510;7.522;2022-07-10T14:54:17;19.30;53.60
58363;DHT22;54977;51.510;7.522;2022-07-10T14:59:19;19.70;54.00
58363;DHT22;54977;51.510;7.522;2022-07-10T15:04:22;19.40;54.00
58363;DHT22;54977;51.510;7.522;2022-07-10T15:09:24;19.30;55.80
58363;DHT22;54977;51.510;7.522;2022-07-10T15:14:26;19.20;58.30
58363;DHT22;54977;51.510;7.522;2022-07-10T15:19:31;18.70;58.90
58363;DHT22;54977;51.510;7.522;2022-07-10T15:24:33;18.40;60.80
58363;DHT22;54977;51.510;7.522;2022-07-10T15:29:35;18.00;61.10
58363;DHT22;54977;51.510;7.522;2022-07-10T15:34:38;18.10;61.50
58363;DHT22;54977;51.510;7.522;2022-07-10T15:39:40;18.50;61.50
58363;DHT22;54977;51.510;7.522;2022-07-10T15:44:44;18.60;61.10
58363;DHT22;54977;51.510;7.522;2022-07-10T15:49:47;18.70;60.80
58363;DHT22;54977;51.510;7.522;2022-07-10T15:54:49;18.70;60.80
58363;DHT22;54977;51.510;7.522;2022-07-10T15:59:51;19.00;60.40
58363;DHT22;54977;51.510;7.522;2022-07-10T16:04:54;19.30;58.80
58363;DHT22;54977;51.510;7.522;2022-07-10T16:09:56;19.60;58.60
58363;DHT22;54977;51.510;7.522;2022-07-10T16:14:58;19.30;58.00
58363;DHT22;54977;51.510;7.522;2022-07-10T16:20:01;19.10;58.10
58363;DHT22;54977;51.510;7.522;2022-07-10T16:25:06;18.90;59.00
58363;DHT22;54977;51.510;7.522;2022-07-10T16:30:26;19.30;58.90
58363;DHT22;54977;51.510;7.522;2022-07-10T16:35:29;19.90;57.90
58363;DHT22;54977;51.510;7.522;2022-07-10T16:40:31;19.90;56.40
58363;DHT22;54977;51.510;7.522;2022-07-10T16:45:33;19.80;55.60
58363;DHT22;54977;51.510;7.522;2022-07-10T16:50:36;20.00;56.80
58363;DHT22;54977;51.510;7.522;2022-07-10T16:55:38;19.90;56.40
58363;DHT22;54977;51.510;7.522;2022-07-10T17:00:40;19.40;56.50
58363;DHT22;54977;51.510;7.522;2022-07-10T17:05:43;19.70;56.90
58363;DHT22;54977;51.510;7.522;2022-07-10T17:10:45;20.10;55.80
58363;DHT22;54977;51.510;7.522;2022-07-10T17:15:47;20.30;54.80
58363;DHT22;54977;51.510;7.522;2022-07-10T17:20:50;19.90;55.10
58363;DHT22;54977;51.510;7.522;2022-07-10T17:25:52;19.80;56.30
58363;DHT22;54977;51.510;7.522;2022-07-10T17:30:54;19.70;56.50
58363;DHT22;54977;51.510;7.522;2022-07-10T17:35:57;19.50;55.80
58363;DHT22;54977;51.510;7.522;2022-07-10T17:40:59;19.60;56.50
58363;DHT22;54977;51.510;7.522;2022-07-10T17:46:01;19.40;56.90
58363;DHT22;54977;51.510;7.522;2022-07-10T17:51:05;19.50;56.50
58363;DHT22;54977;51.510;7.522;2022-07-10T17:56:07;19.50;56.90
58363;DHT22;54977;51.510;7.522;2022-07-10T18:01:09;19.50;56.70
58363;DHT22;54977;51.510;7.522;2022-07-10T18:06:12;19.60;56.80
58363;DHT22;54977;51.510;7.522;2022-07-10T18:11:15;19.60;56.30
58363;DHT22;54977;51.510;7.522;2022-07-10T18:16:19;19.70;56.60
58363;DHT22;54977;51.510;7.522;2022-07-10T18:21:23;19.70;56.20
58363;DHT22;54977;51.510;7.522;2022-07-10T18:26:26;19.60;56.10
58363;DHT22;54977;51.510;7.522;2022-07-10T18:31:28;19.50;56.20
58363;DHT22;54977;51.510;7.522;2022-07-10T18:36:31;19.30;56.50
58363;DHT22;54977;51.510;7.522;2022-07-10T18:41:35;19.20;56.50
58363;DHT22;54977;51.510;7.522;2022-07-10T18:46:37;19.10;56.00
58363;DHT22;54977;51.510;7.522;2022-07-10T18:51:40;18.90;54.90
58363;DHT22;54977;51.510;7.522;2022-07-10T18:56:42;18.70;55.20
58363;DHT22;54977;51.510;7.522;2022-07-10T19:01:44;18.30;55.90
58363;DHT22;54977;51.510;7.522;2022-07-10T19:06:47;18.50;56.50
58363;DHT22;54977;51.510;7.522;2022-07-10T19:11:50;18.40;56.30
58363;DHT22;54977;51.510;7.522;2022-07-10T19:16:53;18.40;56.20
58363;DHT22;54977;51.510;7.522;2022-07-10T19:21:56;18.50;55.90
58363;DHT22;54977;51.510;7.522;2022-07-10T19:27:00;18.50;55.90
58363;DHT22;54977;51.510;7.522;2022-07-10T19:32:02;18.30;56.20
58363;DHT22;54977;51.510;7.522;2022-07-10T19:37:05;17.80;57.20
58363;DHT22;54977;51.510;7.522;2022-07-10T19:42:07;17.90;57.50
58363;DHT22;54977;51.510;7.522;2022-07-10T19:47:09;17.90;57.40
58363;DHT22;54977;51.510;7.522;2022-07-10T19:52:12;18.00;57.20
58363;DHT22;54977;51.510;7.522;2022-07-10T19:57:14;18.10;56.90
58363;DHT22;54977;51.510;7.522;2022-07-10T20:02:16;18.20;56.90
58363;DHT22;54977;51.510;7.522;2022-07-10T20:07:19;18.20;57.20
58363;DHT22;54977;51.510;7.522;2022-07-10T20:12:21;18.20;57.20
58363;DHT22;54977;51.510;7.522;2022-07-10T20:17:23;18.20;57.20
58363;DHT22;54977;51.510;7.522;2022-07-10T20:22:26;18.10;57.40
58363;DHT22;54977;51.510;7.522;2022-07-10T20:27:29;18.10;57.60
58363;DHT22;54977;51.510;7.522;2022-07-10T20:32:30;18.10;57.70
58363;DHT22;54977;51.510;7.522;2022-07-10T20:37:34;18.00;58.10
58363;DHT22;54977;51.510;7.522;2022-07-10T20:42:43;18.10;58.10
58363;DHT22;54977;51.510;7.522;2022-07-10T20:47:45;18.10;57.90
58363;DHT22;54977;51.510;7.522;2022-07-10T20:52:48;18.00;58.10
58363;DHT22;54977;51.510;7.522;2022-07-10T20:57:50;18.00;58.60
58363;DHT22;54977;51.510;7.522;2022-07-10T21:02:52;18.00;58.60
58363;DHT22;54977;51.510;7.522;2022-07-10T21:07:55;18.00;58.40
58363;DHT22;54977;51.510;7.522;2022-07-10T21:12:57;18.00;58.90
58363;DHT22;54977;51.510;7.522;2022-07-10T21:17:58;18.00;59.00
58363;DHT22;54977;51.510;7.522;2022-07-10T21:23:02;18.00;59.00
58363;DHT22;54977;51.510;7.522;2022-07-10T21:28:04;18.00;59.20
58363;DHT22;54977;51.510;7.522;2022-07-10T21:33:06;18.00;59.30
58363;DHT22;54977;51.510;7.522;2022-07-10T21:38:09;18.00;59.30
58363;DHT22;54977;51.510;7.522;2022-07-10T21:43:11;18.00;59.40
58363;DHT22;54977;51.510;7.522;2022-07-10T21:48:13;18.00;59.50
58363;DHT22;54977;51.510;7.522;2022-07-10T21:53:17;18.00;59.50
58363;DHT22;54977;51.510;7.522;2022-07-10T21:58:19;18.00;59.70
58363;DHT22;54977;51.510;7.522;2022-07-10T22:03:21;18.00;60.00
58363;DHT22;54977;51.510;7.522;2022-07-10T22:08:24;18.00;60.10
58363;DHT22;54977;51.510;7.522;2022-07-10T22:13:26;17.90;60.00
58363;DHT22;54977;51.510;7.522;2022-07-10T22:18:28;17.90;60.10
58363;DHT22;54977;51.510;7.522;2022-07-10T22:23:31;17.70;61.20
58363;DHT22;54977;51.510;7.522;2022-07-10T22:28:33;17.80;60.80
58363;DHT22;54977;51.510;7.522;2022-07-10T22:33:34;17.90;60.80
58363;DHT22;54977;51.510;7.522;2022-07-10T22:38:39;17.80;61.10
58363;DHT22;54977;51.510;7.522;2022-07-10T22:43:42;17.90;60.80
58363;DHT22;54977;51.510;7.522;2022-07-10T22:48:44;17.90;60.90
58363;DHT22;54977;51.510;7.522;2022-07-10T22:53:47;17.90;61.00
58363;DHT22;54977;51.510;7.522;2022-07-10T22:58:49;17.90;60.80
58363;DHT22;54977;51.510;7.522;2022-07-10T23:03:51;17.90;60.30
58363;DHT22;54977;51.510;7.522;2022-07-10T23:08:54;17.90;60.10
58363;DHT22;54977;51.510;7.522;2022-07-10T23:13:56;18.00;60.00
58363;DHT22;54977;51.510;7.522;2022-07-10T23:18:58;18.00;59.80
58363;DHT22;54977;51.510;7.522;2022-07-10T23:24:01;18.00;60.00
58363;DHT22;54977;51.510;7.522;2022-07-10T23:29:03;18.10;59.40
58363;DHT22;54977;51.510;7.522;2022-07-10T23:34:05;18.10;59.30
58363;DHT22;54977;51.510;7.522;2022-07-10T23:39:09;18.00;59.60
58363;DHT22;54977;51.510;7.522;2022-07-10T23:44:10;18.00;59.40
58363;DHT22;54977;51.510;7.522;2022-07-10T23:49:12;18.00;59.20
58363;DHT22;54977;51.510;7.522;2022-07-10T23:54:33;18.10;59.00
58363;DHT22;54977;51.510;7.522;2022-07-10T23:59:41;18.20;59.00
